ADDS METAR Data INFO
IDs: Format: Raw Decoded Include TAF

Data at: 1746 UTC 15 Dec 2017

KUXL 151735Z AUTO 03006KT 10SM CLR 10/00 A3030 RMK AO2 T01010001
KUXL 151715Z AUTO 01007KT 10SM CLR 10/01 A3030 RMK AO2 T00980006
KUXL 151655Z AUTO 04007KT 10SM SCT110 10/01 A3030 RMK AO2 T00950006
KUXL 151635Z AUTO 02008KT 10SM SCT110 09/01 A3031 RMK AO2 T00900008
KUXL 151615Z AUTO 02006KT 10SM OVC110 09/01 A3030 RMK AO2 T00880012
KUXL 151555Z AUTO 03007KT 10SM OVC100 09/01 A3030 RMK AO2 T00850013
KUXL 151535Z AUTO 02008KT 10SM OVC100 08/01 A3030 RMK AO2 T00830009
KUXL 151515Z AUTO 02007KT 10SM OVC100 08/01 A3030 RMK AO2 T00820007
KUXL 151455Z AUTO 01009KT 10SM OVC100 09/01 A3029 RMK AO2 T00850014
KUXL 151435Z AUTO 02009KT 10SM OVC110 08/02 A3027 RMK AO2 T00840020
KUXL 151415Z AUTO 01006KT 10SM OVC110 08/02 A3026 RMK AO2 T00830021
KUXL 151355Z AUTO 01008G15KT 10SM OVC110 09/02 A3024 RMK AO2 T00850023
KUXL 151335Z AUTO 02009G14KT 10SM BKN120 09/02 A3022 RMK AO2 T00850024
KUXL 151315Z AUTO 01007KT 10SM SCT110 09/03 A3020 RMK AO2 T00850030
KUXL 151255Z AUTO 01009KT 10SM SCT110 09/03 A3020 RMK AO2 T00850031
KUXL 151235Z AUTO 01007KT 10SM CLR 09/04 A3019 RMK AO2 T00870035
KUXL 151215Z AUTO 36007KT 10SM CLR 09/04 A3017 RMK AO2 T00880035
KUXL 151155Z AUTO 01010G14KT 10SM CLR 09/04 A3016 RMK AO2 T00900037 10111 20090
KUXL 151135Z AUTO 36010G15KT 10SM CLR 09/04 A3015 RMK AO2 T00900039
KUXL 151115Z AUTO 36008KT 10SM CLR 09/04 A3014 RMK AO2 T00910041
KUXL 151055Z AUTO 36008KT 10SM CLR 09/04 A3014 RMK AO2 T00930042
KUXL 151035Z AUTO 36008KT 10SM CLR 10/04 A3013 RMK AO2 T00950043
KUXL 151015Z AUTO 36009KT 10SM CLR 10/05 A3013 RMK AO2 T00960045
KUXL 150955Z AUTO 36009KT 10SM CLR 10/05 A3013 RMK AO2 T00970047
KUXL 150935Z AUTO 01006KT 10SM CLR 10/05 A3012 RMK AO2 T00980050
KUXL 150915Z AUTO 01008KT 10SM CLR 10/06 A3011 RMK AO2 T00960055
KUXL 150855Z AUTO 35007KT 10SM CLR 10/06 A3012 RMK AO2 T00970060
KUXL 150835Z AUTO 35007KT 10SM CLR 10/06 A3011 RMK AO2 T01000062
KUXL 150815Z AUTO 35006KT 10SM CLR 11/06 A3011 RMK AO2 T01050060
KUXL 150755Z AUTO 36004KT 10SM SCT120 11/06 A3011 RMK AO2 T01070060
KUXL 150735Z AUTO 01003KT 10SM SCT120 11/06 A3011 RMK AO2 T01080062
KUXL 150715Z AUTO 01003KT 10SM CLR 11/06 A3010 RMK AO2 T01100062
KUXL 150655Z AUTO 01003KT 10SM CLR 11/06 A3010 RMK AO2 T01100062
KUXL 150635Z AUTO 01004KT 10SM CLR 11/06 A3009 RMK AO2 T01090062
KUXL 150615Z AUTO 01004KT 10SM CLR 11/07 A3009 RMK AO2 T01080065
KUXL 150555Z AUTO 36006KT 10SM CLR 11/07 A3009 RMK AO2 T01120069 10148 20107 401880046
KUXL 150535Z AUTO 36007KT 10SM CLR 12/07 A3009 RMK AO2 T01150072
KUXL 150515Z AUTO 36006KT 10SM CLR 11/07 A3009 RMK AO2 T01130073
KUXL 150455Z AUTO 36004KT 10SM CLR 11/08 A3009 RMK AO2 T01080076
KUXL 150435Z AUTO 35004KT 10SM CLR 11/08 A3009 RMK AO2 T01110076
KUXL 150415Z AUTO 35003KT 10SM CLR 12/08 A3008 RMK AO2 T01150076
KUXL 150355Z AUTO 00000KT 10SM CLR 12/08 A3008 RMK AO2 T01200077
KUXL 150335Z AUTO 01003KT 10SM CLR 12/08 A3007 RMK AO2 T01200082
KUXL 150315Z AUTO 36004KT 10SM CLR 12/09 A3006 RMK AO2 T01180086
KUXL 150255Z AUTO 35004KT 10SM CLR 12/09 A3006 RMK AO2 T01210091
KUXL 150235Z AUTO 00000KT 10SM CLR 13/09 A3005 RMK AO2 T01280086
KUXL 150215Z AUTO 00000KT 10SM CLR 13/09 A3004 RMK AO2 T01300088
KUXL 150155Z AUTO 35003KT 10SM SCT044 13/09 A3004 RMK AO2 T01320087
KUXL 150135Z AUTO 36004KT 10SM BKN044 13/09 A3003 RMK AO2 T01320094
KUXL 150115Z AUTO 00000KT 10SM SCT049 13/10 A3003 RMK AO2 T01340100
KUXL 150055Z AUTO 00000KT 10SM BKN046 14/10 A3002 RMK AO2 T01370100
KUXL 150030Z AUTO 00000KT 10SM OVC044 14/10 A3001 RMK AO2 T01410100
KUXL 150015Z AUTO 00000KT 10SM OVC042 14/10 A3001 RMK AO2 T01430100
KUXL 142355Z AUTO 00000KT 10SM SCT039 BKN045 OVC050 15/10 A3000 RMK AO2 T01490100 10188 20149
KUXL 142335Z AUTO 00000KT 10SM SCT042 SCT047 OVC050 16/10 A2999 RMK AO2 T01550097
KUXL 142315Z AUTO 00000KT 10SM OVC042 16/10 A2998 RMK AO2 T01600098
KUXL 142255Z AUTO 00000KT 10SM OVC042 16/09 A2998 RMK AO2 T01630092
KUXL 142235Z AUTO 13003KT 10SM SCT042 BKN048 OVC060 17/07 A2997 RMK AO2 T01720067
KUXL 142215Z AUTO 00000KT 10SM BKN046 OVC060 18/06 A2997 RMK AO2 T01760060
KUXL 142155Z AUTO 00000KT 10SM BKN046 18/06 A2997 RMK AO2 T01780060
KUXL 142135Z AUTO 00000KT 10SM BKN050 18/05 A2997 RMK AO2 T01810052
KUXL 142115Z AUTO 00000KT 10SM BKN050 18/06 A2998 RMK AO2 T01820055
KUXL 142055Z AUTO 19004KT 10SM CLR 19/06 A2997 RMK AO2 T01870055
KUXL 142035Z AUTO 00000KT 10SM CLR 18/06 A2997 RMK AO2 T01840056
KUXL 142015Z AUTO 00000KT 10SM CLR 18/06 A2996 RMK AO2 T01810058
KUXL 141955Z AUTO 22005KT 10SM CLR 18/06 A2996 RMK AO2 T01810059
KUXL 141935Z AUTO 19004KT 10SM CLR 18/06 A2996 RMK AO2 T01810060
KUXL 141915Z AUTO 20003KT 10SM CLR 18/06 A2998 RMK AO2 T01770060
KUXL 141855Z AUTO 20005KT 10SM CLR 18/06 A2999 RMK AO2 T01760063
KUXL 141835Z AUTO 22005KT 10SM CLR 18/07 A2999 RMK AO2 T01760066
KUXL 141815Z AUTO 21005KT 10SM CLR 18/06 A2999 RMK AO2 T01780064
KUXL 141755Z AUTO 21005KT 10SM CLR 18/06 A3001 RMK AO2 T01770064 10177 20048
KUXL 141735Z AUTO 25004KT 10SM CLR 17/06 A3001 RMK AO2 T01730055
KUXL 141715Z AUTO 00000KT 10SM CLR 17/06 A3001 RMK AO2 T01710062
KUXL 141655Z AUTO 00000KT 10SM CLR 17/07 A3001 RMK AO2 T01650068
KUXL 141635Z AUTO 20003KT 10SM CLR 16/07 A3003 RMK AO2 T01620066
KUXL 141615Z AUTO 00000KT 10SM CLR 16/07 A3003 RMK AO2 T01600065
KUXL 141555Z AUTO 00000KT 10SM CLR 16/07 A3003 RMK AO2 T01580067
KUXL 141535Z AUTO 00000KT 10SM CLR 16/08 A3002 RMK AO2 T01560079
KUXL 141515Z AUTO 00000KT 10SM CLR 14/08 A3002 RMK AO2 T01420082
KUXL 141455Z AUTO 19003KT 10SM CLR 13/09 A3001 RMK AO2 T01330088
KUXL 141435Z AUTO 00000KT 10SM CLR 11/09 A3000 RMK AO2 T01130087
KUXL 141415Z AUTO 00000KT 10SM CLR 09/08 A3001 RMK AO2 T00890084
KUXL 141355Z AUTO 00000KT 7SM CLR 08/07 A3000 RMK AO2 T00750070
KUXL 141335Z AUTO 00000KT 10SM CLR 07/06 A3000 RMK AO2 T00670062
KUXL 141315Z AUTO 00000KT 7SM CLR 06/06 A2999 RMK AO2 T00610056
KUXL 141255Z AUTO 00000KT 10SM CLR 05/05 A2998 RMK AO2 T00540049
KUXL 141235Z AUTO 00000KT 10SM CLR 06/05 A2998 RMK AO2 T00560051
KUXL 141215Z AUTO 00000KT 10SM CLR 05/05 A2997 RMK AO2 T00500046
KUXL 141155Z AUTO 00000KT 10SM CLR 05/05 A2997 RMK AO2 T00490045 10078 20046
KUXL 141135Z AUTO 00000KT 10SM CLR 05/05 A2996 RMK AO2 T00500046
KUXL 141115Z AUTO 00000KT 10SM CLR 05/05 A2996 RMK AO2 T00520050
KUXL 141055Z AUTO 00000KT 10SM CLR 06/05 A2996 RMK AO2 T00550053
KUXL 141035Z AUTO 00000KT 10SM CLR 06/05 A2997 RMK AO2 T00550054
KUXL 141015Z AUTO 00000KT 10SM CLR 05/05 A2997 RMK AO2 T00530053
KUXL 140955Z AUTO 00000KT 4SM BR CLR 05/05 A2996 RMK AO2 T00480047
KUXL 140935Z AUTO 00000KT 7SM CLR 05/05 A2997 RMK AO2 T00500047
KUXL 140915Z AUTO 00000KT 10SM CLR 05/05 A2997 RMK AO2 T00510046
KUXL 140855Z AUTO 00000KT 10SM CLR 06/05 A2997 RMK AO2 T00550052
KUXL 140835Z AUTO 00000KT 10SM CLR 06/06 A2997 RMK AO2 T00600059
KUXL 140815Z AUTO 00000KT 10SM CLR 06/06 A2998 RMK AO2 T00600056
KUXL 140755Z AUTO 00000KT 10SM CLR 07/06 A2998 RMK AO2 T00660062
KUXL 140735Z AUTO 00000KT 10SM CLR 06/05 A2998 RMK AO2 T00570050
KUXL 140715Z AUTO 00000KT 10SM CLR 07/06 A2998 RMK AO2 T00650058
KUXL 140655Z AUTO 00000KT 10SM CLR 07/06 A2997 RMK AO2 T00730064
KUXL 140635Z AUTO 00000KT 10SM CLR 07/07 A2997 RMK AO2 T00730065
KUXL 140615Z AUTO 00000KT 10SM CLR 07/06 A2997 RMK AO2 T00730063
KUXL 140555Z AUTO 00000KT 10SM CLR 08/07 A2998 RMK AO2 T00780065 10105 20070 401601001